Alton, IA

11:26 AM CDT on August 29, 2016 (GMT -0500)
NWC Rec Center | | Change Station

Elev 1411 ft 43.00 °N, 96.06 °W | Updated 37 seconds ago

Clear
Clear
75.3 °F
Feels Like 75 °F
N
6.1
Wind Variable Wind from SSE
Gusts 0.0 mph

Today
High -- | Low -- °F
--% Chance of Precip.
Yesterday
High -- | Low -- °F
Precip. -- in
Pressure 30.23 in
Visibility 10.0 miles
Clouds Clear
Heat Index 75 °F
Dew Point 72 °F
Humidity 90%
Rainfall 0.00 in
Snow Depth Not available.
6:45 AM 8:02 PM
Waning Crescent, 8% visible
METAR KORC 291615Z AUTO 17006KT 10SM CLR 24/21 A3023 RMK AO2
Pressure 30.23 in
Visibility 10.0 miles
Clouds Clear
Heat Index 75 °F
Dew Point 72 °F
Humidity 90%
Rainfall 0.00 in
Snow Depth Not available.
6:45 AM 8:02 PM
Waning Crescent, 8% visible
METAR KORC 291615Z AUTO 17006KT 10SM CLR 24/21 A3023 RMK AO2

10-Day Weather Forecast

Almanac

Astronomy

Aug. 29, 2016 Rise Set
Actual Time
Civil Twilight
Nautical Twilight
Astronomical Twilight
Moon
Length of Visible Light
Length of Day
Tomorrow will be .
, % of the Moon is Illuminated

Today's Extremes

State Highs State Lows

Community

WunderPhotos

Upload Photos

1,935,867 photos uploaded!

WunderBlog® & News

Nearby

Air Quality

  Air Quality AQ Index Pollutant
Not available.

Snow Depth

Station Depth Elevation

Earthquake Activity

City Distance Mag. Time & Date
Minimum magnitude displayed is 2.5.

Coastal Water Temperatures

Place Temperature

Stations

Nearby Weather Stations

Station Location Temp. Windchill Dew Point Humidity Wind Precip. Elev Updated Type
                   

Watches & Warnings

There are currently no watches in effect.